Terminal Aerodrome Forecast
Issued by NWS

Home | Current Version | Previous Version | Text Only | Print | Product List | Glossary On
Versions: 1 2 3 4 5 6 7 8 9 10 11 12 13 14 15 16 17 18 19 20 21 22 23 24 25 26 27 28 29 30 31 32 33 34 35
000
FTUS45 KGJT 201244 AAB
TAFTEX
TAF AMD
KTEX 201244Z 2013/2112 VRB03KT 3SM BR SCT001 BKN030 OVC045
     FM201400 VRB03KT P6SM SCT030 SCT050 BKN080
     FM201800 22005KT P6SM SCT080 BKN100
     FM202100 26006KT P6SM VCTS SCT080CB BKN120
     FM210000 23005KT P6SM SCT100 BKN150=

USA.gov is the U.S. government's official web portal to all federal, state and local government web resources and services.